sensor_id;sensor_type;location;lat;lon;timestamp;P1;durP1;ratioP1;P2;durP2;ratioP2
74941;SDS011;63506;49.346;8.798;2023-02-28T00:00:12;3.13;;;2.58;;
74941;SDS011;63506;49.346;8.798;2023-02-28T00:02:41;3.67;;;3.35;;
74941;SDS011;63506;49.346;8.798;2023-02-28T00:05:10;3.15;;;2.83;;
74941;SDS011;63506;49.346;8.798;2023-02-28T00:07:39;5.32;;;3.75;;
74941;SDS011;63506;49.346;8.798;2023-02-28T00:10:08;3.85;;;2.80;;
74941;SDS011;63506;49.346;8.798;2023-02-28T00:12:37;7.50;;;3.45;;
74941;SDS011;63506;49.346;8.798;2023-02-28T00:15:05;4.45;;;3.60;;
74941;SDS011;63506;49.346;8.798;2023-02-28T00:17:33;4.97;;;3.15;;
74941;SDS011;63506;49.346;8.798;2023-02-28T00:20:00;5.65;;;3.20;;
74941;SDS011;63506;49.346;8.798;2023-02-28T00:22:37;4.10;;;3.00;;
74941;SDS011;63506;49.346;8.798;2023-02-28T00:25:07;5.63;;;3.45;;
74941;SDS011;63506;49.346;8.798;2023-02-28T00:27:36;5.47;;;3.33;;
74941;SDS011;63506;49.346;8.798;2023-02-28T00:30:05;3.78;;;2.53;;
74941;SDS011;63506;49.346;8.798;2023-02-28T00:32:34;5.00;;;3.75;;
74941;SDS011;63506;49.346;8.798;2023-02-28T00:35:02;4.72;;;3.83;;
74941;SDS011;63506;49.346;8.798;2023-02-28T00:37:29;2.67;;;2.45;;
74941;SDS011;63506;49.346;8.798;2023-02-28T00:39:58;4.75;;;2.95;;
74941;SDS011;63506;49.346;8.798;2023-02-28T00:42:26;3.72;;;3.38;;
74941;SDS011;63506;49.346;8.798;2023-02-28T00:44:53;3.72;;;3.42;;
74941;SDS011;63506;49.346;8.798;2023-02-28T00:47:21;5.90;;;3.45;;
74941;SDS011;63506;49.346;8.798;2023-02-28T00:49:49;5.07;;;3.35;;
74941;SDS011;63506;49.346;8.798;2023-02-28T00:52:16;5.53;;;3.60;;
74941;SDS011;63506;49.346;8.798;2023-02-28T00:54:43;7.18;;;4.82;;
74941;SDS011;63506;49.346;8.798;2023-02-28T00:57:12;3.63;;;2.78;;
74941;SDS011;63506;49.346;8.798;2023-02-28T00:59:39;4.50;;;3.60;;
74941;SDS011;63506;49.346;8.798;2023-02-28T01:02:07;6.80;;;4.15;;
74941;SDS011;63506;49.346;8.798;2023-02-28T01:04:36;4.93;;;3.65;;
74941;SDS011;63506;49.346;8.798;2023-02-28T01:07:03;4.65;;;3.97;;
74941;SDS011;63506;49.346;8.798;2023-02-28T01:09:31;4.35;;;3.65;;
74941;SDS011;63506;49.346;8.798;2023-02-28T01:11:58;3.00;;;2.70;;
74941;SDS011;63506;49.346;8.798;2023-02-28T01:14:27;3.92;;;3.53;;
74941;SDS011;63506;49.346;8.798;2023-02-28T01:16:54;5.15;;;3.30;;
74941;SDS011;63506;49.346;8.798;2023-02-28T01:19:21;3.63;;;3.33;;
74941;SDS011;63506;49.346;8.798;2023-02-28T01:21:49;3.33;;;2.78;;
74941;SDS011;63506;49.346;8.798;2023-02-28T01:24:16;4.65;;;3.17;;
74941;SDS011;63506;49.346;8.798;2023-02-28T01:26:44;4.35;;;3.92;;
74941;SDS011;63506;49.346;8.798;2023-02-28T01:29:11;4.50;;;3.08;;
74941;SDS011;63506;49.346;8.798;2023-02-28T01:31:40;5.20;;;4.05;;
74941;SDS011;63506;49.346;8.798;2023-02-28T01:34:07;4.28;;;3.58;;
74941;SDS011;63506;49.346;8.798;2023-02-28T01:36:35;5.20;;;3.97;;
74941;SDS011;63506;49.346;8.798;2023-02-28T01:39:03;5.65;;;4.07;;
74941;SDS011;63506;49.346;8.798;2023-02-28T01:41:31;4.88;;;3.42;;
74941;SDS011;63506;49.346;8.798;2023-02-28T01:44:02;4.15;;;3.15;;
74941;SDS011;63506;49.346;8.798;2023-02-28T01:46:30;5.47;;;3.67;;
74941;SDS011;63506;49.346;8.798;2023-02-28T01:49:02;4.70;;;3.60;;
74941;SDS011;63506;49.346;8.798;2023-02-28T01:54:02;4.85;;;4.00;;
74941;SDS011;63506;49.346;8.798;2023-02-28T01:56:32;5.15;;;3.65;;
74941;SDS011;63506;49.346;8.798;2023-02-28T01:59:01;5.63;;;4.70;;
74941;SDS011;63506;49.346;8.798;2023-02-28T02:01:29;9.55;;;5.18;;
74941;SDS011;63506;49.346;8.798;2023-02-28T02:04:02;4.47;;;3.97;;
74941;SDS011;63506;49.346;8.798;2023-02-28T02:06:31;4.18;;;3.30;;
74941;SDS011;63506;49.346;8.798;2023-02-28T02:09:01;6.93;;;3.85;;
74941;SDS011;63506;49.346;8.798;2023-02-28T02:11:28;5.85;;;4.28;;
74941;SDS011;63506;49.346;8.798;2023-02-28T02:14:07;4.90;;;4.40;;
74941;SDS011;63506;49.346;8.798;2023-02-28T02:16:43;8.65;;;5.43;;
74941;SDS011;63506;49.346;8.798;2023-02-28T02:19:26;6.57;;;4.78;;
74941;SDS011;63506;49.346;8.798;2023-02-28T02:24:59;5.10;;;4.32;;
74941;SDS011;63506;49.346;8.798;2023-02-28T02:27:48;4.50;;;3.95;;
74941;SDS011;63506;49.346;8.798;2023-02-28T02:30:43;4.43;;;3.30;;
74941;SDS011;63506;49.346;8.798;2023-02-28T02:36:22;5.43;;;4.25;;
74941;SDS011;63506;49.346;8.798;2023-02-28T02:38:51;5.40;;;3.95;;
74941;SDS011;63506;49.346;8.798;2023-02-28T02:41:23;4.25;;;2.88;;
74941;SDS011;63506;49.346;8.798;2023-02-28T02:43:56;5.15;;;3.53;;
74941;SDS011;63506;49.346;8.798;2023-02-28T02:46:26;4.05;;;3.58;;
74941;SDS011;63506;49.346;8.798;2023-02-28T02:48:58;5.22;;;3.05;;
74941;SDS011;63506;49.346;8.798;2023-02-28T02:51:29;4.90;;;3.85;;
74941;SDS011;63506;49.346;8.798;2023-02-28T02:53:58;6.68;;;3.80;;
74941;SDS011;63506;49.346;8.798;2023-02-28T02:56:34;5.20;;;3.70;;
74941;SDS011;63506;49.346;8.798;2023-02-28T02:59:03;5.88;;;4.03;;
74941;SDS011;63506;49.346;8.798;2023-02-28T03:01:34;5.40;;;4.18;;
74941;SDS011;63506;49.346;8.798;2023-02-28T03:04:06;5.55;;;3.92;;
74941;SDS011;63506;49.346;8.798;2023-02-28T03:06:39;6.07;;;3.97;;
74941;SDS011;63506;49.346;8.798;2023-02-28T03:09:06;6.13;;;4.28;;
74941;SDS011;63506;49.346;8.798;2023-02-28T03:11:34;4.55;;;3.47;;
74941;SDS011;63506;49.346;8.798;2023-02-28T03:14:10;5.72;;;3.88;;
74941;SDS011;63506;49.346;8.798;2023-02-28T03:16:57;6.53;;;5.00;;
74941;SDS011;63506;49.346;8.798;2023-02-28T03:19:32;5.80;;;4.53;;
74941;SDS011;63506;49.346;8.798;2023-02-28T03:25:13;5.20;;;4.05;;
74941;SDS011;63506;49.346;8.798;2023-02-28T03:27:48;5.70;;;4.70;;
74941;SDS011;63506;49.346;8.798;2023-02-28T03:30:22;7.38;;;4.10;;
74941;SDS011;63506;49.346;8.798;2023-02-28T03:32:52;4.63;;;3.38;;
74941;SDS011;63506;49.346;8.798;2023-02-28T03:35:22;8.18;;;4.75;;
74941;SDS011;63506;49.346;8.798;2023-02-28T03:37:52;6.90;;;5.47;;
74941;SDS011;63506;49.346;8.798;2023-02-28T03:40:24;6.15;;;3.97;;
74941;SDS011;63506;49.346;8.798;2023-02-28T03:42:54;6.05;;;4.82;;
74941;SDS011;63506;49.346;8.798;2023-02-28T03:45:25;5.15;;;3.88;;
74941;SDS011;63506;49.346;8.798;2023-02-28T03:47:55;6.47;;;5.53;;
74941;SDS011;63506;49.346;8.798;2023-02-28T03:50:25;5.45;;;4.20;;
74941;SDS011;63506;49.346;8.798;2023-02-28T03:52:55;5.07;;;4.65;;
74941;SDS011;63506;49.346;8.798;2023-02-28T03:55:28;4.80;;;3.88;;
74941;SDS011;63506;49.346;8.798;2023-02-28T03:58:00;5.70;;;4.70;;
74941;SDS011;63506;49.346;8.798;2023-02-28T04:00:35;5.85;;;4.80;;
74941;SDS011;63506;49.346;8.798;2023-02-28T04:03:05;5.43;;;4.32;;
74941;SDS011;63506;49.346;8.798;2023-02-28T04:05:32;7.00;;;4.45;;
74941;SDS011;63506;49.346;8.798;2023-02-28T04:08:03;6.20;;;5.32;;
74941;SDS011;63506;49.346;8.798;2023-02-28T04:10:32;13.20;;;5.90;;
74941;SDS011;63506;49.346;8.798;2023-02-28T04:13:00;5.57;;;4.38;;
74941;SDS011;63506;49.346;8.798;2023-02-28T04:15:27;5.32;;;4.82;;
74941;SDS011;63506;49.346;8.798;2023-02-28T04:17:54;6.88;;;5.18;;
74941;SDS011;63506;49.346;8.798;2023-02-28T04:20:21;5.07;;;4.57;;
74941;SDS011;63506;49.346;8.798;2023-02-28T04:22:49;4.72;;;3.72;;
74941;SDS011;63506;49.346;8.798;2023-02-28T04:25:18;7.80;;;4.47;;
74941;SDS011;63506;49.346;8.798;2023-02-28T04:27:47;5.80;;;5.05;;
74941;SDS011;63506;49.346;8.798;2023-02-28T04:30:16;7.22;;;4.85;;
74941;SDS011;63506;49.346;8.798;2023-02-28T04:32:44;8.88;;;6.18;;
74941;SDS011;63506;49.346;8.798;2023-02-28T04:35:13;6.03;;;4.25;;
74941;SDS011;63506;49.346;8.798;2023-02-28T04:37:43;6.88;;;5.22;;
74941;SDS011;63506;49.346;8.798;2023-02-28T04:40:13;5.25;;;4.03;;
74941;SDS011;63506;49.346;8.798;2023-02-28T04:42:40;6.40;;;4.78;;
74941;SDS011;63506;49.346;8.798;2023-02-28T04:45:11;5.95;;;4.88;;
74941;SDS011;63506;49.346;8.798;2023-02-28T04:47:38;5.70;;;4.45;;
74941;SDS011;63506;49.346;8.798;2023-02-28T04:50:06;8.82;;;6.50;;
74941;SDS011;63506;49.346;8.798;2023-02-28T04:52:36;9.00;;;5.97;;
74941;SDS011;63506;49.346;8.798;2023-02-28T04:55:06;5.47;;;4.97;;
74941;SDS011;63506;49.346;8.798;2023-02-28T04:57:37;6.28;;;4.68;;
74941;SDS011;63506;49.346;8.798;2023-02-28T05:00:07;9.32;;;4.38;;
74941;SDS011;63506;49.346;8.798;2023-02-28T05:02:41;10.33;;;5.23;;
74941;SDS011;63506;49.346;8.798;2023-02-28T05:05:10;6.25;;;4.78;;
74941;SDS011;63506;49.346;8.798;2023-02-28T05:07:42;9.27;;;5.88;;
74941;SDS011;63506;49.346;8.798;2023-02-28T05:10:10;5.85;;;4.93;;
74941;SDS011;63506;49.346;8.798;2023-02-28T05:12:38;5.13;;;4.47;;
74941;SDS011;63506;49.346;8.798;2023-02-28T05:15:08;5.82;;;5.20;;
74941;SDS011;63506;49.346;8.798;2023-02-28T05:17:38;8.50;;;4.93;;
74941;SDS011;63506;49.346;8.798;2023-02-28T05:20:08;6.18;;;5.28;;
74941;SDS011;63506;49.346;8.798;2023-02-28T05:22:37;8.77;;;4.80;;
74941;SDS011;63506;49.346;8.798;2023-02-28T05:25:04;7.05;;;4.82;;
74941;SDS011;63506;49.346;8.798;2023-02-28T05:27:34;8.05;;;5.50;;
74941;SDS011;63506;49.346;8.798;2023-02-28T05:30:01;5.00;;;4.43;;
74941;SDS011;63506;49.346;8.798;2023-02-28T05:32:32;6.70;;;4.50;;
74941;SDS011;63506;49.346;8.798;2023-02-28T05:35:02;4.78;;;3.88;;
74941;SDS011;63506;49.346;8.798;2023-02-28T05:37:31;6.30;;;5.07;;
74941;SDS011;63506;49.346;8.798;2023-02-28T05:39:58;5.97;;;4.07;;
74941;SDS011;63506;49.346;8.798;2023-02-28T05:42:25;6.25;;;3.58;;
74941;SDS011;63506;49.346;8.798;2023-02-28T05:44:53;5.07;;;4.28;;
74941;SDS011;63506;49.346;8.798;2023-02-28T05:47:20;4.90;;;3.92;;
74941;SDS011;63506;49.346;8.798;2023-02-28T05:49:52;6.97;;;4.90;;
74941;SDS011;63506;49.346;8.798;2023-02-28T05:52:19;7.82;;;5.18;;
74941;SDS011;63506;49.346;8.798;2023-02-28T05:54:48;6.75;;;5.60;;
74941;SDS011;63506;49.346;8.798;2023-02-28T05:57:15;6.22;;;4.80;;
74941;SDS011;63506;49.346;8.798;2023-02-28T05:59:42;5.63;;;3.85;;
74941;SDS011;63506;49.346;8.798;2023-02-28T06:02:13;6.53;;;4.82;;
74941;SDS011;63506;49.346;8.798;2023-02-28T06:04:42;7.80;;;5.30;;
74941;SDS011;63506;49.346;8.798;2023-02-28T06:07:10;7.43;;;5.43;;
74941;SDS011;63506;49.346;8.798;2023-02-28T06:09:37;7.18;;;5.38;;
74941;SDS011;63506;49.346;8.798;2023-02-28T06:12:06;6.05;;;4.63;;
74941;SDS011;63506;49.346;8.798;2023-02-28T06:14:38;5.85;;;4.75;;
74941;SDS011;63506;49.346;8.798;2023-02-28T06:17:05;4.72;;;4.00;;
74941;SDS011;63506;49.346;8.798;2023-02-28T06:19:36;6.63;;;5.60;;
74941;SDS011;63506;49.346;8.798;2023-02-28T06:22:09;5.47;;;4.78;;
74941;SDS011;63506;49.346;8.798;2023-02-28T06:24:36;8.95;;;5.07;;
74941;SDS011;63506;49.346;8.798;2023-02-28T06:27:07;6.30;;;5.00;;
74941;SDS011;63506;49.346;8.798;2023-02-28T06:29:34;6.38;;;5.35;;
74941;SDS011;63506;49.346;8.798;2023-02-28T06:32:04;6.82;;;5.95;;
74941;SDS011;63506;49.346;8.798;2023-02-28T06:34:31;9.70;;;6.28;;
74941;SDS011;63506;49.346;8.798;2023-02-28T06:36:59;7.22;;;5.07;;
74941;SDS011;63506;49.346;8.798;2023-02-28T06:39:27;18.77;;;5.60;;
74941;SDS011;63506;49.346;8.798;2023-02-28T06:41:55;7.85;;;5.05;;
74941;SDS011;63506;49.346;8.798;2023-02-28T06:44:26;6.70;;;5.15;;
74941;SDS011;63506;49.346;8.798;2023-02-28T06:47:03;8.57;;;6.47;;
74941;SDS011;63506;49.346;8.798;2023-02-28T06:52:32;6.55;;;5.90;;
74941;SDS011;63506;49.346;8.798;2023-02-28T06:55:02;8.13;;;5.45;;
74941;SDS011;63506;49.346;8.798;2023-02-28T06:57:30;9.45;;;5.63;;
74941;SDS011;63506;49.346;8.798;2023-02-28T06:59:59;8.82;;;6.35;;
74941;SDS011;63506;49.346;8.798;2023-02-28T07:02:28;6.25;;;4.88;;
74941;SDS011;63506;49.346;8.798;2023-02-28T07:04:57;8.82;;;6.28;;
74941;SDS011;63506;49.346;8.798;2023-02-28T07:07:27;9.93;;;6.18;;
74941;SDS011;63506;49.346;8.798;2023-02-28T07:09:54;9.07;;;5.18;;
74941;SDS011;63506;49.346;8.798;2023-02-28T07:12:24;7.32;;;5.65;;
74941;SDS011;63506;49.346;8.798;2023-02-28T07:14:54;7.43;;;6.20;;
74941;SDS011;63506;49.346;8.798;2023-02-28T07:17:23;7.03;;;6.32;;
74941;SDS011;63506;49.346;8.798;2023-02-28T07:19:50;7.55;;;5.75;;
74941;SDS011;63506;49.346;8.798;2023-02-28T07:22:20;7.25;;;5.50;;
74941;SDS011;63506;49.346;8.798;2023-02-28T07:24:47;9.15;;;7.20;;
74941;SDS011;63506;49.346;8.798;2023-02-28T07:27:19;8.88;;;6.20;;
74941;SDS011;63506;49.346;8.798;2023-02-28T07:29:51;6.97;;;5.55;;
74941;SDS011;63506;49.346;8.798;2023-02-28T07:32:23;5.95;;;5.28;;
74941;SDS011;63506;49.346;8.798;2023-02-28T07:34:51;7.72;;;6.28;;
74941;SDS011;63506;49.346;8.798;2023-02-28T07:37:18;9.23;;;5.75;;
74941;SDS011;63506;49.346;8.798;2023-02-28T07:39:46;6.80;;;5.72;;
74941;SDS011;63506;49.346;8.798;2023-02-28T07:42:13;6.93;;;5.25;;
74941;SDS011;63506;49.346;8.798;2023-02-28T07:44:40;10.05;;;5.47;;
74941;SDS011;63506;49.346;8.798;2023-02-28T07:47:43;8.60;;;4.82;;
74941;SDS011;63506;49.346;8.798;2023-02-28T07:50:14;6.60;;;4.75;;
74941;SDS011;63506;49.346;8.798;2023-02-28T07:52:43;8.20;;;6.07;;
74941;SDS011;63506;49.346;8.798;2023-02-28T07:55:13;6.72;;;5.20;;
74941;SDS011;63506;49.346;8.798;2023-02-28T07:57:42;9.60;;;6.07;;
74941;SDS011;63506;49.346;8.798;2023-02-28T08:00:11;8.32;;;6.15;;
74941;SDS011;63506;49.346;8.798;2023-02-28T08:02:43;9.50;;;6.15;;
74941;SDS011;63506;49.346;8.798;2023-02-28T08:05:10;9.70;;;6.40;;
74941;SDS011;63506;49.346;8.798;2023-02-28T08:07:41;8.80;;;6.30;;
74941;SDS011;63506;49.346;8.798;2023-02-28T08:10:08;5.88;;;4.85;;
74941;SDS011;63506;49.346;8.798;2023-02-28T08:12:39;6.85;;;5.78;;
74941;SDS011;63506;49.346;8.798;2023-02-28T08:15:07;6.85;;;6.10;;
74941;SDS011;63506;49.346;8.798;2023-02-28T08:17:37;9.13;;;6.53;;
74941;SDS011;63506;49.346;8.798;2023-02-28T08:20:08;7.32;;;6.63;;
74941;SDS011;63506;49.346;8.798;2023-02-28T08:22:36;10.82;;;5.95;;
74941;SDS011;63506;49.346;8.798;2023-02-28T08:25:04;8.85;;;5.63;;
74941;SDS011;63506;49.346;8.798;2023-02-28T08:27:32;7.05;;;5.95;;
74941;SDS011;63506;49.346;8.798;2023-02-28T08:30:00;7.60;;;5.38;;
74941;SDS011;63506;49.346;8.798;2023-02-28T08:32:30;9.07;;;5.95;;
74941;SDS011;63506;49.346;8.798;2023-02-28T08:34:59;7.82;;;6.82;;
74941;SDS011;63506;49.346;8.798;2023-02-28T08:37:29;6.20;;;4.60;;
74941;SDS011;63506;49.346;8.798;2023-02-28T08:39:59;7.22;;;5.93;;
74941;SDS011;63506;49.346;8.798;2023-02-28T08:42:26;8.60;;;6.45;;
74941;SDS011;63506;49.346;8.798;2023-02-28T08:44:53;8.55;;;6.40;;
74941;SDS011;63506;49.346;8.798;2023-02-28T08:47:21;9.18;;;5.50;;
74941;SDS011;63506;49.346;8.798;2023-02-28T08:49:50;8.90;;;5.25;;
74941;SDS011;63506;49.346;8.798;2023-02-28T08:52:18;8.95;;;6.38;;
74941;SDS011;63506;49.346;8.798;2023-02-28T08:54:47;8.90;;;7.13;;
74941;SDS011;63506;49.346;8.798;2023-02-28T08:57:15;9.70;;;6.18;;
74941;SDS011;63506;49.346;8.798;2023-02-28T08:59:42;9.15;;;6.28;;
74941;SDS011;63506;49.346;8.798;2023-02-28T09:02:10;9.40;;;6.18;;
74941;SDS011;63506;49.346;8.798;2023-02-28T09:04:39;7.85;;;6.97;;
74941;SDS011;63506;49.346;8.798;2023-02-28T09:07:07;8.15;;;7.03;;
74941;SDS011;63506;49.346;8.798;2023-02-28T09:09:34;9.20;;;6.70;;
74941;SDS011;63506;49.346;8.798;2023-02-28T09:12:03;7.00;;;5.32;;
74941;SDS011;63506;49.346;8.798;2023-02-28T09:14:31;10.45;;;7.15;;
74941;SDS011;63506;49.346;8.798;2023-02-28T09:17:03;11.20;;;6.22;;
74941;SDS011;63506;49.346;8.798;2023-02-28T09:19:31;7.30;;;6.22;;
74941;SDS011;63506;49.346;8.798;2023-02-28T09:21:58;7.78;;;5.60;;
74941;SDS011;63506;49.346;8.798;2023-02-28T09:24:26;6.88;;;5.70;;
74941;SDS011;63506;49.346;8.798;2023-02-28T09:26:53;7.85;;;5.78;;
74941;SDS011;63506;49.346;8.798;2023-02-28T09:29:25;10.57;;;6.32;;
74941;SDS011;63506;49.346;8.798;2023-02-28T09:31:52;14.20;;;7.60;;
74941;SDS011;63506;49.346;8.798;2023-02-28T09:34:22;8.57;;;7.13;;
74941;SDS011;63506;49.346;8.798;2023-02-28T09:36:50;6.80;;;6.15;;
74941;SDS011;63506;49.346;8.798;2023-02-28T09:39:21;7.50;;;5.80;;
74941;SDS011;63506;49.346;8.798;2023-02-28T09:41:49;9.63;;;6.40;;
74941;SDS011;63506;49.346;8.798;2023-02-28T09:44:20;9.32;;;5.63;;
74941;SDS011;63506;49.346;8.798;2023-02-28T09:46:53;7.15;;;5.60;;
74941;SDS011;63506;49.346;8.798;2023-02-28T09:49:24;9.25;;;6.45;;
74941;SDS011;63506;49.346;8.798;2023-02-28T09:51:57;9.07;;;6.95;;
74941;SDS011;63506;49.346;8.798;2023-02-28T09:54:27;10.05;;;8.10;;
74941;SDS011;63506;49.346;8.798;2023-02-28T09:56:57;8.98;;;6.25;;
74941;SDS011;63506;49.346;8.798;2023-02-28T09:59:38;9.88;;;7.55;;
74941;SDS011;63506;49.346;8.798;2023-02-28T10:02:13;9.43;;;6.82;;
74941;SDS011;63506;49.346;8.798;2023-02-28T10:07:56;9.75;;;6.00;;
74941;SDS011;63506;49.346;8.798;2023-02-28T10:10:37;9.10;;;6.70;;
74941;SDS011;63506;49.346;8.798;2023-02-28T10:13:20;9.25;;;5.75;;
74941;SDS011;63506;49.346;8.798;2023-02-28T10:15:52;15.52;;;7.60;;
74941;SDS011;63506;49.346;8.798;2023-02-28T10:18:25;7.28;;;6.55;;
74941;SDS011;63506;49.346;8.798;2023-02-28T10:20:54;8.32;;;6.93;;
74941;SDS011;63506;49.346;8.798;2023-02-28T10:23:25;8.98;;;6.50;;
74941;SDS011;63506;49.346;8.798;2023-02-28T10:25:55;9.75;;;6.28;;
74941;SDS011;63506;49.346;8.798;2023-02-28T10:28:26;8.02;;;6.75;;
74941;SDS011;63506;49.346;8.798;2023-02-28T10:30:56;9.75;;;6.90;;
74941;SDS011;63506;49.346;8.798;2023-02-28T10:33:30;7.53;;;6.80;;
74941;SDS011;63506;49.346;8.798;2023-02-28T10:35:58;9.05;;;6.60;;
74941;SDS011;63506;49.346;8.798;2023-02-28T10:38:28;8.23;;;7.43;;
74941;SDS011;63506;49.346;8.798;2023-02-28T10:41:06;11.80;;;8.82;;
74941;SDS011;63506;49.346;8.798;2023-02-28T10:43:34;7.68;;;5.32;;
74941;SDS011;63506;49.346;8.798;2023-02-28T10:46:11;8.65;;;6.55;;
74941;SDS011;63506;49.346;8.798;2023-02-28T10:51:11;8.95;;;6.60;;
74941;SDS011;63506;49.346;8.798;2023-02-28T10:53:47;9.68;;;6.63;;
74941;SDS011;63506;49.346;8.798;2023-02-28T10:56:18;8.75;;;6.93;;
74941;SDS011;63506;49.346;8.798;2023-02-28T10:58:50;8.65;;;6.55;;
74941;SDS011;63506;49.346;8.798;2023-02-28T11:01:20;9.02;;;7.32;;
74941;SDS011;63506;49.346;8.798;2023-02-28T11:03:53;7.82;;;6.53;;
74941;SDS011;63506;49.346;8.798;2023-02-28T11:06:23;8.10;;;6.97;;
74941;SDS011;63506;49.346;8.798;2023-02-28T11:08:53;11.15;;;7.43;;
74941;SDS011;63506;49.346;8.798;2023-02-28T11:11:22;11.73;;;8.00;;
74941;SDS011;63506;49.346;8.798;2023-02-28T11:13:52;9.98;;;7.20;;
74941;SDS011;63506;49.346;8.798;2023-02-28T11:16:31;10.65;;;8.32;;
74941;SDS011;63506;49.346;8.798;2023-02-28T11:19:01;10.07;;;7.35;;
74941;SDS011;63506;49.346;8.798;2023-02-28T11:21:30;10.10;;;7.28;;
74941;SDS011;63506;49.346;8.798;2023-02-28T11:24:00;11.20;;;7.18;;
74941;SDS011;63506;49.346;8.798;2023-02-28T11:26:38;8.88;;;7.32;;
74941;SDS011;63506;49.346;8.798;2023-02-28T11:29:11;9.95;;;6.57;;
74941;SDS011;63506;49.346;8.798;2023-02-28T11:31:48;8.43;;;6.35;;
74941;SDS011;63506;49.346;8.798;2023-02-28T11:34:30;7.75;;;6.20;;
74941;SDS011;63506;49.346;8.798;2023-02-28T11:37:00;8.50;;;7.53;;
74941;SDS011;63506;49.346;8.798;2023-02-28T11:39:31;11.70;;;7.82;;
74941;SDS011;63506;49.346;8.798;2023-02-28T11:45:15;8.82;;;7.93;;
74941;SDS011;63506;49.346;8.798;2023-02-28T11:47:53;10.23;;;8.00;;
74941;SDS011;63506;49.346;8.798;2023-02-28T11:50:31;11.38;;;7.38;;
74941;SDS011;63506;49.346;8.798;2023-02-28T11:53:14;8.15;;;7.18;;
74941;SDS011;63506;49.346;8.798;2023-02-28T11:55:47;9.55;;;8.43;;
74941;SDS011;63506;49.346;8.798;2023-02-28T11:58:27;11.85;;;8.02;;
74941;SDS011;63506;49.346;8.798;2023-02-28T12:01:05;10.65;;;7.45;;
74941;SDS011;63506;49.346;8.798;2023-02-28T12:03:43;8.05;;;6.93;;
74941;SDS011;63506;49.346;8.798;2023-02-28T12:06:18;12.57;;;7.55;;
74941;SDS011;63506;49.346;8.798;2023-02-28T12:11:50;9.07;;;7.85;;
74941;SDS011;63506;49.346;8.798;2023-02-28T12:14:44;8.25;;;7.28;;
74941;SDS011;63506;49.346;8.798;2023-02-28T12:17:35;11.48;;;8.18;;
74941;SDS011;63506;49.346;8.798;2023-02-28T12:20:10;9.48;;;7.88;;
74941;SDS011;63506;49.346;8.798;2023-02-28T12:22:51;7.75;;;6.38;;
74941;SDS011;63506;49.346;8.798;2023-02-28T12:25:35;12.82;;;7.95;;
74941;SDS011;63506;49.346;8.798;2023-02-28T12:30:38;10.40;;;7.85;;
74941;SDS011;63506;49.346;8.798;2023-02-28T12:33:11;10.23;;;7.15;;
74941;SDS011;63506;49.346;8.798;2023-02-28T12:35:43;11.98;;;9.68;;
74941;SDS011;63506;49.346;8.798;2023-02-28T12:38:16;9.45;;;6.47;;
74941;SDS011;63506;49.346;8.798;2023-02-28T12:40:47;9.60;;;8.43;;
74941;SDS011;63506;49.346;8.798;2023-02-28T12:43:17;10.57;;;7.63;;
74941;SDS011;63506;49.346;8.798;2023-02-28T12:45:46;9.52;;;6.80;;
74941;SDS011;63506;49.346;8.798;2023-02-28T12:48:18;11.38;;;8.82;;
74941;SDS011;63506;49.346;8.798;2023-02-28T12:50:47;12.77;;;7.38;;
74941;SDS011;63506;49.346;8.798;2023-02-28T12:56:28;12.93;;;7.55;;
74941;SDS011;63506;49.346;8.798;2023-02-28T12:59:05;10.18;;;7.60;;
74941;SDS011;63506;49.346;8.798;2023-02-28T13:01:45;13.85;;;9.02;;
74941;SDS011;63506;49.346;8.798;2023-02-28T13:04:40;12.02;;;9.05;;
74941;SDS011;63506;49.346;8.798;2023-02-28T13:07:22;9.70;;;8.60;;
74941;SDS011;63506;49.346;8.798;2023-02-28T13:10:09;14.43;;;8.02;;
74941;SDS011;63506;49.346;8.798;2023-02-28T13:12:37;11.40;;;8.02;;
74941;SDS011;63506;49.346;8.798;2023-02-28T13:15:16;9.45;;;7.05;;
74941;SDS011;63506;49.346;8.798;2023-02-28T13:17:48;8.18;;;7.22;;
74941;SDS011;63506;49.346;8.798;2023-02-28T13:20:17;12.20;;;9.05;;
74941;SDS011;63506;49.346;8.798;2023-02-28T13:22:46;12.68;;;8.20;;
74941;SDS011;63506;49.346;8.798;2023-02-28T13:31:39;9.93;;;7.22;;
74941;SDS011;63506;49.346;8.798;2023-02-28T13:34:49;12.48;;;8.75;;
74941;SDS011;63506;49.346;8.798;2023-02-28T13:37:42;12.10;;;9.00;;
74941;SDS011;63506;49.346;8.798;2023-02-28T13:40:27;9.48;;;8.48;;
74941;SDS011;63506;49.346;8.798;2023-02-28T13:43:05;12.25;;;9.48;;
74941;SDS011;63506;49.346;8.798;2023-02-28T13:45:35;12.40;;;8.80;;
74941;SDS011;63506;49.346;8.798;2023-02-28T13:48:04;8.52;;;7.55;;
74941;SDS011;63506;49.346;8.798;2023-02-28T13:50:45;11.07;;;7.68;;
74941;SDS011;63506;49.346;8.798;2023-02-28T13:56:17;11.48;;;8.73;;
74941;SDS011;63506;49.346;8.798;2023-02-28T13:58:52;11.60;;;8.40;;
74941;SDS011;63506;49.346;8.798;2023-02-28T14:01:31;10.80;;;7.82;;
74941;SDS011;63506;49.346;8.798;2023-02-28T14:04:14;14.07;;;9.52;;
74941;SDS011;63506;49.346;8.798;2023-02-28T14:06:54;9.77;;;7.72;;
74941;SDS011;63506;49.346;8.798;2023-02-28T14:09:25;8.95;;;7.30;;
74941;SDS011;63506;49.346;8.798;2023-02-28T14:11:54;16.83;;;8.15;;
74941;SDS011;63506;49.346;8.798;2023-02-28T14:17:23;8.80;;;6.70;;
74941;SDS011;63506;49.346;8.798;2023-02-28T14:19:51;12.57;;;8.70;;
74941;SDS011;63506;49.346;8.798;2023-02-28T14:22:25;9.45;;;7.78;;
74941;SDS011;63506;49.346;8.798;2023-02-28T14:25:13;10.43;;;7.95;;
74941;SDS011;63506;49.346;8.798;2023-02-28T14:27:48;9.68;;;7.05;;
74941;SDS011;63506;49.346;8.798;2023-02-28T14:30:36;10.38;;;7.93;;
74941;SDS011;63506;49.346;8.798;2023-02-28T14:36:16;9.88;;;7.97;;
74941;SDS011;63506;49.346;8.798;2023-02-28T14:38:51;10.02;;;8.85;;
74941;SDS011;63506;49.346;8.798;2023-02-28T14:41:24;13.98;;;8.27;;
74941;SDS011;63506;49.346;8.798;2023-02-28T14:43:57;8.88;;;7.68;;
74941;SDS011;63506;49.346;8.798;2023-02-28T14:46:28;11.57;;;8.27;;
74941;SDS011;63506;49.346;8.798;2023-02-28T14:48:59;9.68;;;7.57;;
74941;SDS011;63506;49.346;8.798;2023-02-28T14:51:32;11.13;;;8.82;;
74941;SDS011;63506;49.346;8.798;2023-02-28T14:54:00;10.43;;;9.13;;
74941;SDS011;63506;49.346;8.798;2023-02-28T14:56:30;11.38;;;8.55;;
74941;SDS011;63506;49.346;8.798;2023-02-28T14:59:02;11.45;;;9.00;;
74941;SDS011;63506;49.346;8.798;2023-02-28T15:01:32;9.63;;;6.68;;
74941;SDS011;63506;49.346;8.798;2023-02-28T15:04:00;14.70;;;8.75;;
74941;SDS011;63506;49.346;8.798;2023-02-28T15:06:30;11.93;;;7.75;;
74941;SDS011;63506;49.346;8.798;2023-02-28T15:11:45;9.55;;;7.85;;
74941;SDS011;63506;49.346;8.798;2023-02-28T15:14:18;15.82;;;9.13;;
74941;SDS011;63506;49.346;8.798;2023-02-28T15:16:55;10.55;;;8.35;;
74941;SDS011;63506;49.346;8.798;2023-02-28T15:19:25;9.98;;;7.80;;
74941;SDS011;63506;49.346;8.798;2023-02-28T15:21:58;12.80;;;8.93;;
74941;SDS011;63506;49.346;8.798;2023-02-28T15:24:30;9.70;;;7.72;;
74941;SDS011;63506;49.346;8.798;2023-02-28T15:27:03;9.82;;;8.35;;
74941;SDS011;63506;49.346;8.798;2023-02-28T15:29:34;10.30;;;7.57;;
74941;SDS011;63506;49.346;8.798;2023-02-28T15:32:19;10.80;;;8.15;;
74941;SDS011;63506;49.346;8.798;2023-02-28T15:34:55;9.95;;;7.57;;
74941;SDS011;63506;49.346;8.798;2023-02-28T15:37:38;12.15;;;7.32;;
74941;SDS011;63506;49.346;8.798;2023-02-28T15:40:12;9.18;;;6.68;;
74941;SDS011;63506;49.346;8.798;2023-02-28T15:42:57;10.90;;;8.38;;
74941;SDS011;63506;49.346;8.798;2023-02-28T15:45:26;12.18;;;8.75;;
74941;SDS011;63506;49.346;8.798;2023-02-28T15:47:57;11.43;;;8.85;;
74941;SDS011;63506;49.346;8.798;2023-02-28T15:50:27;10.82;;;8.30;;
74941;SDS011;63506;49.346;8.798;2023-02-28T15:52:56;10.35;;;8.73;;
74941;SDS011;63506;49.346;8.798;2023-02-28T15:55:25;8.50;;;7.60;;
74941;SDS011;63506;49.346;8.798;2023-02-28T15:57:54;9.57;;;8.25;;
74941;SDS011;63506;49.346;8.798;2023-02-28T16:00:25;13.00;;;8.13;;